sensor_id;sensor_type;location;lat;lon;timestamp;P1;durP1;ratioP1;P2;durP2;ratioP2
13457;SDS011;6801;53.018;11.560;2023-10-09T00:01:05;5.20;;;1.58;;
13457;SDS011;6801;53.018;11.560;2023-10-09T00:03:41;5.00;;;2.15;;
13457;SDS011;6801;53.018;11.560;2023-10-09T00:06:08;5.33;;;2.00;;
13457;SDS011;6801;53.018;11.560;2023-10-09T00:08:38;5.65;;;1.48;;
13457;SDS011;6801;53.018;11.560;2023-10-09T00:11:09;4.53;;;1.65;;
13457;SDS011;6801;53.018;11.560;2023-10-09T00:13:41;7.72;;;1.65;;
13457;SDS011;6801;53.018;11.560;2023-10-09T00:16:16;5.32;;;1.73;;
13457;SDS011;6801;53.018;11.560;2023-10-09T00:18:49;5.65;;;1.98;;
13457;SDS011;6801;53.018;11.560;2023-10-09T00:21:18;6.05;;;1.60;;
13457;SDS011;6801;53.018;11.560;2023-10-09T00:23:48;5.03;;;1.80;;
13457;SDS011;6801;53.018;11.560;2023-10-09T00:26:20;4.78;;;1.60;;
13457;SDS011;6801;53.018;11.560;2023-10-09T00:28:51;7.32;;;1.50;;
13457;SDS011;6801;53.018;11.560;2023-10-09T00:31:18;5.38;;;1.63;;
13457;SDS011;6801;53.018;11.560;2023-10-09T00:33:57;4.82;;;1.45;;
13457;SDS011;6801;53.018;11.560;2023-10-09T00:36:33;3.33;;;1.42;;
13457;SDS011;6801;53.018;11.560;2023-10-09T00:39:15;2.22;;;1.25;;
13457;SDS011;6801;53.018;11.560;2023-10-09T00:41:48;3.40;;;1.10;;
13457;SDS011;6801;53.018;11.560;2023-10-09T00:44:15;4.55;;;1.10;;
13457;SDS011;6801;53.018;11.560;2023-10-09T00:46:44;4.55;;;1.30;;
13457;SDS011;6801;53.018;11.560;2023-10-09T00:49:14;2.50;;;1.45;;
13457;SDS011;6801;53.018;11.560;2023-10-09T00:51:42;4.07;;;1.20;;
13457;SDS011;6801;53.018;11.560;2023-10-09T00:54:21;2.10;;;0.90;;
13457;SDS011;6801;53.018;11.560;2023-10-09T00:56:53;3.03;;;0.80;;
13457;SDS011;6801;53.018;11.560;2023-10-09T00:59:31;3.10;;;1.00;;
13457;SDS011;6801;53.018;11.560;2023-10-09T01:02:04;4.82;;;1.17;;
13457;SDS011;6801;53.018;11.560;2023-10-09T01:04:33;2.47;;;0.80;;
13457;SDS011;6801;53.018;11.560;2023-10-09T01:07:05;4.07;;;0.75;;
13457;SDS011;6801;53.018;11.560;2023-10-09T01:09:40;2.28;;;0.80;;
13457;SDS011;6801;53.018;11.560;2023-10-09T01:12:10;2.70;;;1.10;;
13457;SDS011;6801;53.018;11.560;2023-10-09T01:14:42;4.63;;;1.38;;
13457;SDS011;6801;53.018;11.560;2023-10-09T01:17:09;2.63;;;0.95;;
13457;SDS011;6801;53.018;11.560;2023-10-09T01:19:39;4.50;;;1.40;;
13457;SDS011;6801;53.018;11.560;2023-10-09T01:22:09;3.10;;;0.90;;
13457;SDS011;6801;53.018;11.560;2023-10-09T01:24:41;3.55;;;1.30;;
13457;SDS011;6801;53.018;11.560;2023-10-09T01:27:09;3.30;;;1.05;;
13457;SDS011;6801;53.018;11.560;2023-10-09T01:29:40;3.38;;;1.25;;
13457;SDS011;6801;53.018;11.560;2023-10-09T01:32:09;3.75;;;1.52;;
13457;SDS011;6801;53.018;11.560;2023-10-09T01:34:42;4.38;;;1.00;;
13457;SDS011;6801;53.018;11.560;2023-10-09T01:37:14;4.45;;;1.10;;
13457;SDS011;6801;53.018;11.560;2023-10-09T01:39:45;5.45;;;1.00;;
13457;SDS011;6801;53.018;11.560;2023-10-09T01:42:13;3.47;;;0.90;;
13457;SDS011;6801;53.018;11.560;2023-10-09T01:44:59;2.67;;;1.30;;
13457;SDS011;6801;53.018;11.560;2023-10-09T01:47:35;5.40;;;1.10;;
13457;SDS011;6801;53.018;11.560;2023-10-09T01:50:03;4.20;;;0.85;;
13457;SDS011;6801;53.018;11.560;2023-10-09T01:52:43;5.50;;;1.40;;
13457;SDS011;6801;53.018;11.560;2023-10-09T01:55:12;6.38;;;1.00;;
13457;SDS011;6801;53.018;11.560;2023-10-09T01:57:52;5.65;;;0.95;;
13457;SDS011;6801;53.018;11.560;2023-10-09T02:00:19;3.50;;;1.10;;
13457;SDS011;6801;53.018;11.560;2023-10-09T02:02:49;5.28;;;1.30;;
13457;SDS011;6801;53.018;11.560;2023-10-09T02:05:17;4.43;;;1.02;;
13457;SDS011;6801;53.018;11.560;2023-10-09T02:07:50;2.78;;;0.85;;
13457;SDS011;6801;53.018;11.560;2023-10-09T02:10:19;4.25;;;1.10;;
13457;SDS011;6801;53.018;11.560;2023-10-09T02:12:51;3.47;;;0.95;;
13457;SDS011;6801;53.018;11.560;2023-10-09T02:15:22;3.70;;;1.13;;
13457;SDS011;6801;53.018;11.560;2023-10-09T02:18:06;5.15;;;1.23;;
13457;SDS011;6801;53.018;11.560;2023-10-09T02:20:43;3.08;;;1.10;;
13457;SDS011;6801;53.018;11.560;2023-10-09T02:23:11;3.30;;;1.00;;
13457;SDS011;6801;53.018;11.560;2023-10-09T02:25:41;6.15;;;1.25;;
13457;SDS011;6801;53.018;11.560;2023-10-09T02:28:09;3.78;;;1.05;;
13457;SDS011;6801;53.018;11.560;2023-10-09T02:30:43;2.38;;;0.82;;
13457;SDS011;6801;53.018;11.560;2023-10-09T02:33:13;3.53;;;1.10;;
13457;SDS011;6801;53.018;11.560;2023-10-09T02:35:44;3.22;;;1.13;;
13457;SDS011;6801;53.018;11.560;2023-10-09T02:38:16;2.40;;;0.98;;
13457;SDS011;6801;53.018;11.560;2023-10-09T02:40:49;6.03;;;1.27;;
13457;SDS011;6801;53.018;11.560;2023-10-09T02:43:44;3.42;;;1.05;;
13457;SDS011;6801;53.018;11.560;2023-10-09T02:46:12;9.13;;;1.23;;
13457;SDS011;6801;53.018;11.560;2023-10-09T02:48:43;5.32;;;1.48;;
13457;SDS011;6801;53.018;11.560;2023-10-09T02:51:16;4.55;;;1.15;;
13457;SDS011;6801;53.018;11.560;2023-10-09T02:53:58;2.88;;;1.20;;
13457;SDS011;6801;53.018;11.560;2023-10-09T02:56:35;2.22;;;1.10;;
13457;SDS011;6801;53.018;11.560;2023-10-09T02:59:06;4.95;;;1.73;;
13457;SDS011;6801;53.018;11.560;2023-10-09T03:01:33;2.42;;;1.00;;
13457;SDS011;6801;53.018;11.560;2023-10-09T03:04:02;5.03;;;0.90;;
13457;SDS011;6801;53.018;11.560;2023-10-09T03:06:31;3.67;;;1.10;;
13457;SDS011;6801;53.018;11.560;2023-10-09T03:08:59;2.25;;;0.73;;
13457;SDS011;6801;53.018;11.560;2023-10-09T03:11:43;3.92;;;0.90;;
13457;SDS011;6801;53.018;11.560;2023-10-09T03:14:11;3.22;;;1.10;;
13457;SDS011;6801;53.018;11.560;2023-10-09T03:16:38;3.08;;;1.10;;
13457;SDS011;6801;53.018;11.560;2023-10-09T03:19:05;3.38;;;1.02;;
13457;SDS011;6801;53.018;11.560;2023-10-09T03:21:32;2.70;;;1.17;;
13457;SDS011;6801;53.018;11.560;2023-10-09T03:24:01;3.10;;;1.20;;
13457;SDS011;6801;53.018;11.560;2023-10-09T03:26:30;3.83;;;1.20;;
13457;SDS011;6801;53.018;11.560;2023-10-09T03:28:58;3.10;;;1.52;;
13457;SDS011;6801;53.018;11.560;2023-10-09T03:31:26;2.92;;;1.15;;
13457;SDS011;6801;53.018;11.560;2023-10-09T03:33:56;4.90;;;1.52;;
13457;SDS011;6801;53.018;11.560;2023-10-09T03:36:23;3.88;;;1.17;;
13457;SDS011;6801;53.018;11.560;2023-10-09T03:38:52;3.55;;;0.90;;
13457;SDS011;6801;53.018;11.560;2023-10-09T03:41:20;3.30;;;1.00;;
13457;SDS011;6801;53.018;11.560;2023-10-09T03:43:47;4.88;;;1.35;;
13457;SDS011;6801;53.018;11.560;2023-10-09T03:46:15;4.90;;;1.30;;
13457;SDS011;6801;53.018;11.560;2023-10-09T03:48:47;3.83;;;0.95;;
13457;SDS011;6801;53.018;11.560;2023-10-09T03:51:15;2.80;;;1.13;;
13457;SDS011;6801;53.018;11.560;2023-10-09T03:53:46;4.00;;;1.52;;
13457;SDS011;6801;53.018;11.560;2023-10-09T03:56:14;3.25;;;0.90;;
13457;SDS011;6801;53.018;11.560;2023-10-09T03:58:43;4.95;;;1.10;;
13457;SDS011;6801;53.018;11.560;2023-10-09T04:01:11;3.90;;;1.05;;
13457;SDS011;6801;53.018;11.560;2023-10-09T04:03:48;5.05;;;1.23;;
13457;SDS011;6801;53.018;11.560;2023-10-09T04:06:20;5.05;;;1.10;;
13457;SDS011;6801;53.018;11.560;2023-10-09T04:08:47;3.95;;;1.10;;
13457;SDS011;6801;53.018;11.560;2023-10-09T04:11:16;5.95;;;1.27;;
13457;SDS011;6801;53.018;11.560;2023-10-09T04:13:48;4.10;;;1.42;;
13457;SDS011;6801;53.018;11.560;2023-10-09T04:16:17;3.33;;;1.00;;
13457;SDS011;6801;53.018;11.560;2023-10-09T04:19:17;2.60;;;1.00;;
13457;SDS011;6801;53.018;11.560;2023-10-09T04:21:47;3.80;;;1.35;;
13457;SDS011;6801;53.018;11.560;2023-10-09T04:24:13;3.22;;;1.10;;
13457;SDS011;6801;53.018;11.560;2023-10-09T04:26:50;2.45;;;0.77;;
13457;SDS011;6801;53.018;11.560;2023-10-09T04:29:22;2.78;;;1.10;;
13457;SDS011;6801;53.018;11.560;2023-10-09T04:31:52;5.10;;;1.27;;
13457;SDS011;6801;53.018;11.560;2023-10-09T04:34:22;3.05;;;0.82;;
13457;SDS011;6801;53.018;11.560;2023-10-09T04:36:48;2.33;;;0.80;;
13457;SDS011;6801;53.018;11.560;2023-10-09T04:39:17;2.05;;;0.82;;
13457;SDS011;6801;53.018;11.560;2023-10-09T04:42:11;3.50;;;1.15;;
13457;SDS011;6801;53.018;11.560;2023-10-09T04:44:58;4.65;;;1.45;;
13457;SDS011;6801;53.018;11.560;2023-10-09T04:47:43;3.95;;;1.40;;
13457;SDS011;6801;53.018;11.560;2023-10-09T04:50:24;2.45;;;0.93;;
13457;SDS011;6801;53.018;11.560;2023-10-09T04:53:31;3.22;;;1.00;;
13457;SDS011;6801;53.018;11.560;2023-10-09T04:56:04;3.40;;;1.10;;
13457;SDS011;6801;53.018;11.560;2023-10-09T04:58:40;5.45;;;1.30;;
13457;SDS011;6801;53.018;11.560;2023-10-09T05:01:09;2.95;;;1.08;;
13457;SDS011;6801;53.018;11.560;2023-10-09T05:03:41;2.30;;;0.90;;
13457;SDS011;6801;53.018;11.560;2023-10-09T05:06:23;3.92;;;1.23;;
13457;SDS011;6801;53.018;11.560;2023-10-09T05:09:08;3.80;;;1.50;;
13457;SDS011;6801;53.018;11.560;2023-10-09T05:11:40;4.70;;;1.27;;
13457;SDS011;6801;53.018;11.560;2023-10-09T05:14:34;4.55;;;1.27;;
13457;SDS011;6801;53.018;11.560;2023-10-09T05:17:07;4.57;;;1.50;;
13457;SDS011;6801;53.018;11.560;2023-10-09T05:19:41;3.58;;;1.33;;
13457;SDS011;6801;53.018;11.560;2023-10-09T05:22:22;2.75;;;1.17;;
13457;SDS011;6801;53.018;11.560;2023-10-09T05:25:04;4.07;;;1.10;;
13457;SDS011;6801;53.018;11.560;2023-10-09T05:27:41;2.38;;;1.10;;
13457;SDS011;6801;53.018;11.560;2023-10-09T05:30:15;3.75;;;1.10;;
13457;SDS011;6801;53.018;11.560;2023-10-09T05:32:52;3.22;;;1.20;;
13457;SDS011;6801;53.018;11.560;2023-10-09T05:35:23;5.63;;;1.48;;
13457;SDS011;6801;53.018;11.560;2023-10-09T05:38:09;2.95;;;1.00;;
13457;SDS011;6801;53.018;11.560;2023-10-09T05:40:49;3.92;;;1.10;;
13457;SDS011;6801;53.018;11.560;2023-10-09T05:46:00;3.95;;;1.02;;
13457;SDS011;6801;53.018;11.560;2023-10-09T05:48:40;3.20;;;1.10;;
13457;SDS011;6801;53.018;11.560;2023-10-09T05:51:20;3.33;;;1.13;;
13457;SDS011;6801;53.018;11.560;2023-10-09T05:54:06;2.25;;;0.88;;
13457;SDS011;6801;53.018;11.560;2023-10-09T05:56:51;2.90;;;1.33;;
13457;SDS011;6801;53.018;11.560;2023-10-09T05:59:56;4.13;;;0.82;;
13457;SDS011;6801;53.018;11.560;2023-10-09T06:02:40;2.92;;;0.98;;
13457;SDS011;6801;53.018;11.560;2023-10-09T06:05:25;3.17;;;1.38;;
13457;SDS011;6801;53.018;11.560;2023-10-09T06:08:16;3.92;;;0.90;;
13457;SDS011;6801;53.018;11.560;2023-10-09T06:10:51;4.32;;;1.40;;
13457;SDS011;6801;53.018;11.560;2023-10-09T06:13:31;2.50;;;1.00;;
13457;SDS011;6801;53.018;11.560;2023-10-09T06:16:10;4.78;;;1.55;;
13457;SDS011;6801;53.018;11.560;2023-10-09T06:18:57;4.20;;;1.23;;
13457;SDS011;6801;53.018;11.560;2023-10-09T06:21:37;2.63;;;0.75;;
13457;SDS011;6801;53.018;11.560;2023-10-09T06:24:21;3.08;;;1.13;;
13457;SDS011;6801;53.018;11.560;2023-10-09T06:26:50;2.50;;;1.08;;
13457;SDS011;6801;53.018;11.560;2023-10-09T06:29:37;2.88;;;1.00;;
13457;SDS011;6801;53.018;11.560;2023-10-09T06:32:16;3.47;;;1.20;;
13457;SDS011;6801;53.018;11.560;2023-10-09T06:35:00;1.95;;;1.00;;
13457;SDS011;6801;53.018;11.560;2023-10-09T06:37:44;3.53;;;1.38;;
13457;SDS011;6801;53.018;11.560;2023-10-09T06:40:30;5.43;;;1.13;;
13457;SDS011;6801;53.018;11.560;2023-10-09T06:43:17;3.25;;;0.75;;
13457;SDS011;6801;53.018;11.560;2023-10-09T06:45:52;2.83;;;1.23;;
13457;SDS011;6801;53.018;11.560;2023-10-09T06:48:23;6.05;;;1.17;;
13457;SDS011;6801;53.018;11.560;2023-10-09T06:51:09;2.35;;;1.00;;
13457;SDS011;6801;53.018;11.560;2023-10-09T06:53:41;3.88;;;1.30;;
13457;SDS011;6801;53.018;11.560;2023-10-09T06:56:32;5.88;;;1.20;;
13457;SDS011;6801;53.018;11.560;2023-10-09T06:59:15;4.45;;;1.10;;
13457;SDS011;6801;53.018;11.560;2023-10-09T07:01:46;4.13;;;1.33;;
13457;SDS011;6801;53.018;11.560;2023-10-09T07:04:35;2.67;;;1.10;;
13457;SDS011;6801;53.018;11.560;2023-10-09T07:07:20;5.53;;;1.67;;
13457;SDS011;6801;53.018;11.560;2023-10-09T07:09:50;3.80;;;1.55;;
13457;SDS011;6801;53.018;11.560;2023-10-09T07:12:35;4.30;;;1.40;;
13457;SDS011;6801;53.018;11.560;2023-10-09T07:15:10;3.35;;;1.55;;
13457;SDS011;6801;53.018;11.560;2023-10-09T07:18:01;5.28;;;1.55;;
13457;SDS011;6801;53.018;11.560;2023-10-09T07:20:44;4.28;;;1.67;;
13457;SDS011;6801;53.018;11.560;2023-10-09T07:23:24;4.85;;;1.60;;
13457;SDS011;6801;53.018;11.560;2023-10-09T07:26:00;2.92;;;1.13;;
13457;SDS011;6801;53.018;11.560;2023-10-09T07:28:44;5.32;;;1.95;;
13457;SDS011;6801;53.018;11.560;2023-10-09T07:31:18;3.75;;;1.50;;
13457;SDS011;6801;53.018;11.560;2023-10-09T07:33:55;3.75;;;1.50;;
13457;SDS011;6801;53.018;11.560;2023-10-09T07:36:25;2.63;;;1.17;;
13457;SDS011;6801;53.018;11.560;2023-10-09T07:39:03;5.72;;;1.63;;
13457;SDS011;6801;53.018;11.560;2023-10-09T07:41:39;3.63;;;1.80;;
13457;SDS011;6801;53.018;11.560;2023-10-09T07:44:20;4.72;;;1.70;;
13457;SDS011;6801;53.018;11.560;2023-10-09T07:47:04;3.38;;;1.40;;
13457;SDS011;6801;53.018;11.560;2023-10-09T07:49:42;2.38;;;1.15;;
13457;SDS011;6801;53.018;11.560;2023-10-09T07:52:14;5.63;;;2.10;;
13457;SDS011;6801;53.018;11.560;2023-10-09T07:54:42;7.38;;;1.60;;
13457;SDS011;6801;53.018;11.560;2023-10-09T07:57:15;5.32;;;2.00;;
13457;SDS011;6801;53.018;11.560;2023-10-09T07:59:43;3.63;;;1.63;;
13457;SDS011;6801;53.018;11.560;2023-10-09T08:02:21;3.22;;;1.70;;
13457;SDS011;6801;53.018;11.560;2023-10-09T08:04:57;5.30;;;2.08;;
13457;SDS011;6801;53.018;11.560;2023-10-09T08:07:29;4.72;;;1.88;;
13457;SDS011;6801;53.018;11.560;2023-10-09T08:10:00;5.47;;;2.30;;
13457;SDS011;6801;53.018;11.560;2023-10-09T08:12:46;4.07;;;1.70;;
13457;SDS011;6801;53.018;11.560;2023-10-09T08:15:24;5.65;;;1.95;;
13457;SDS011;6801;53.018;11.560;2023-10-09T08:18:00;3.95;;;1.65;;
13457;SDS011;6801;53.018;11.560;2023-10-09T08:20:35;2.63;;;1.50;;
13457;SDS011;6801;53.018;11.560;2023-10-09T08:23:37;2.95;;;1.73;;
13457;SDS011;6801;53.018;11.560;2023-10-09T08:26:13;4.40;;;1.80;;
13457;SDS011;6801;53.018;11.560;2023-10-09T08:28:53;4.55;;;1.75;;
13457;SDS011;6801;53.018;11.560;2023-10-09T08:31:40;3.92;;;2.15;;
13457;SDS011;6801;53.018;11.560;2023-10-09T08:34:13;6.28;;;2.22;;
13457;SDS011;6801;53.018;11.560;2023-10-09T08:36:49;4.03;;;1.95;;
13457;SDS011;6801;53.018;11.560;2023-10-09T08:39:19;5.05;;;2.28;;
13457;SDS011;6801;53.018;11.560;2023-10-09T08:41:52;6.68;;;2.03;;
13457;SDS011;6801;53.018;11.560;2023-10-09T08:44:23;6.55;;;1.83;;
13457;SDS011;6801;53.018;11.560;2023-10-09T08:46:53;3.42;;;2.13;;
13457;SDS011;6801;53.018;11.560;2023-10-09T08:49:24;3.70;;;1.85;;
13457;SDS011;6801;53.018;11.560;2023-10-09T08:51:52;7.22;;;2.05;;
13457;SDS011;6801;53.018;11.560;2023-10-09T08:54:20;4.25;;;1.95;;
13457;SDS011;6801;53.018;11.560;2023-10-09T08:56:47;5.28;;;2.13;;
13457;SDS011;6801;53.018;11.560;2023-10-09T08:59:19;3.88;;;1.77;;
13457;SDS011;6801;53.018;11.560;2023-10-09T09:01:47;3.53;;;1.77;;
13457;SDS011;6801;53.018;11.560;2023-10-09T09:07:05;6.05;;;2.15;;
13457;SDS011;6801;53.018;11.560;2023-10-09T09:09:32;7.03;;;2.10;;
13457;SDS011;6801;53.018;11.560;2023-10-09T09:12:00;4.82;;;2.17;;
13457;SDS011;6801;53.018;11.560;2023-10-09T09:14:37;3.95;;;1.95;;
13457;SDS011;6801;53.018;11.560;2023-10-09T09:17:04;3.58;;;1.85;;
13457;SDS011;6801;53.018;11.560;2023-10-09T09:19:37;3.50;;;2.15;;
13457;SDS011;6801;53.018;11.560;2023-10-09T09:22:05;5.38;;;2.05;;
13457;SDS011;6801;53.018;11.560;2023-10-09T09:24:39;4.75;;;2.00;;
13457;SDS011;6801;53.018;11.560;2023-10-09T09:27:12;5.43;;;1.90;;
13457;SDS011;6801;53.018;11.560;2023-10-09T09:29:43;6.65;;;3.33;;
13457;SDS011;6801;53.018;11.560;2023-10-09T09:32:26;3.45;;;1.80;;
13457;SDS011;6801;53.018;11.560;2023-10-09T09:35:02;3.45;;;1.92;;
13457;SDS011;6801;53.018;11.560;2023-10-09T09:37:31;2.92;;;1.67;;
13457;SDS011;6801;53.018;11.560;2023-10-09T09:40:15;2.85;;;2.00;;
13457;SDS011;6801;53.018;11.560;2023-10-09T09:42:55;3.45;;;1.90;;
13457;SDS011;6801;53.018;11.560;2023-10-09T09:45:31;3.70;;;1.60;;
13457;SDS011;6801;53.018;11.560;2023-10-09T09:47:59;4.10;;;1.65;;
13457;SDS011;6801;53.018;11.560;2023-10-09T09:50:35;6.55;;;1.83;;
13457;SDS011;6801;53.018;11.560;2023-10-09T09:53:08;3.50;;;1.80;;
13457;SDS011;6801;53.018;11.560;2023-10-09T09:55:37;2.63;;;1.70;;
13457;SDS011;6801;53.018;11.560;2023-10-09T09:58:08;3.55;;;1.30;;
13457;SDS011;6801;53.018;11.560;2023-10-09T10:00:44;3.08;;;1.45;;
13457;SDS011;6801;53.018;11.560;2023-10-09T10:03:18;2.50;;;1.50;;
13457;SDS011;6801;53.018;11.560;2023-10-09T10:08:17;2.33;;;1.33;;
13457;SDS011;6801;53.018;11.560;2023-10-09T10:10:46;2.53;;;1.40;;
13457;SDS011;6801;53.018;11.560;2023-10-09T10:13:15;2.10;;;1.33;;
13457;SDS011;6801;53.018;11.560;2023-10-09T10:18:52;3.22;;;1.00;;
13457;SDS011;6801;53.018;11.560;2023-10-09T10:21:26;1.77;;;0.90;;
13457;SDS011;6801;53.018;11.560;2023-10-09T10:27:17;2.45;;;1.30;;
13457;SDS011;6801;53.018;11.560;2023-10-09T10:33:02;1.88;;;1.15;;
13457;SDS011;6801;53.018;11.560;2023-10-09T10:35:37;2.00;;;1.17;;
13457;SDS011;6801;53.018;11.560;2023-10-09T10:38:29;2.72;;;1.20;;
13457;SDS011;6801;53.018;11.560;2023-10-09T10:41:08;4.00;;;1.55;;
13457;SDS011;6801;53.018;11.560;2023-10-09T10:43:37;2.40;;;1.17;;
13457;SDS011;6801;53.018;11.560;2023-10-09T10:46:24;3.45;;;1.35;;
13457;SDS011;6801;53.018;11.560;2023-10-09T10:49:05;2.72;;;1.45;;
13457;SDS011;6801;53.018;11.560;2023-10-09T10:51:46;3.58;;;1.23;;
13457;SDS011;6801;53.018;11.560;2023-10-09T10:54:27;3.05;;;1.55;;
13457;SDS011;6801;53.018;11.560;2023-10-09T10:57:15;2.95;;;1.73;;
13457;SDS011;6801;53.018;11.560;2023-10-09T10:59:55;2.10;;;1.40;;
13457;SDS011;6801;53.018;11.560;2023-10-09T11:02:59;4.75;;;1.92;;
13457;SDS011;6801;53.018;11.560;2023-10-09T11:05:39;2.75;;;1.40;;
13457;SDS011;6801;53.018;11.560;2023-10-09T11:08:11;3.33;;;1.85;;
13457;SDS011;6801;53.018;11.560;2023-10-09T11:10:42;2.28;;;1.50;;
13457;SDS011;6801;53.018;11.560;2023-10-09T11:13:22;2.83;;;1.52;;
13457;SDS011;6801;53.018;11.560;2023-10-09T11:15:58;3.47;;;1.55;;
13457;SDS011;6801;53.018;11.560;2023-10-09T11:18:40;2.95;;;1.52;;
13457;SDS011;6801;53.018;11.560;2023-10-09T11:21:12;2.10;;;1.38;;
13457;SDS011;6801;53.018;11.560;2023-10-09T11:23:57;2.42;;;1.70;;
13457;SDS011;6801;53.018;11.560;2023-10-09T11:26:26;3.80;;;1.83;;
13457;SDS011;6801;53.018;11.560;2023-10-09T11:29:07;2.15;;;1.13;;
13457;SDS011;6801;53.018;11.560;2023-10-09T11:31:42;3.10;;;1.63;;
13457;SDS011;6801;53.018;11.560;2023-10-09T11:34:22;2.63;;;1.38;;
13457;SDS011;6801;53.018;11.560;2023-10-09T11:37:00;2.40;;;1.70;;
13457;SDS011;6801;53.018;11.560;2023-10-09T11:39:28;3.85;;;2.10;;
13457;SDS011;6801;53.018;11.560;2023-10-09T11:42:03;2.72;;;1.60;;
13457;SDS011;6801;53.018;11.560;2023-10-09T11:44:37;3.65;;;1.75;;
13457;SDS011;6801;53.018;11.560;2023-10-09T11:47:06;3.08;;;1.85;;
13457;SDS011;6801;53.018;11.560;2023-10-09T11:49:51;3.88;;;1.58;;
13457;SDS011;6801;53.018;11.560;2023-10-09T11:52:55;2.85;;;1.80;;
13457;SDS011;6801;53.018;11.560;2023-10-09T11:55:34;2.63;;;1.40;;
13457;SDS011;6801;53.018;11.560;2023-10-09T11:58:03;3.20;;;1.40;;
13457;SDS011;6801;53.018;11.560;2023-10-09T12:00:32;2.55;;;1.85;;
13457;SDS011;6801;53.018;11.560;2023-10-09T12:03:10;2.63;;;1.60;;
13457;SDS011;6801;53.018;11.560;2023-10-09T12:05:38;5.03;;;1.60;;
13457;SDS011;6801;53.018;11.560;2023-10-09T12:08:09;4.68;;;1.90;;
13457;SDS011;6801;53.018;11.560;2023-10-09T12:10:39;3.05;;;1.85;;
13457;SDS011;6801;53.018;11.560;2023-10-09T12:13:07;2.97;;;2.00;;
13457;SDS011;6801;53.018;11.560;2023-10-09T12:15:34;2.75;;;1.83;;
13457;SDS011;6801;53.018;11.560;2023-10-09T12:18:05;3.22;;;2.05;;
13457;SDS011;6801;53.018;11.560;2023-10-09T12:20:40;3.00;;;2.00;;
13457;SDS011;6801;53.018;11.560;2023-10-09T12:23:10;3.25;;;1.65;;
13457;SDS011;6801;53.018;11.560;2023-10-09T12:25:40;2.83;;;2.00;;
13457;SDS011;6801;53.018;11.560;2023-10-09T12:28:11;3.80;;;2.38;;
13457;SDS011;6801;53.018;11.560;2023-10-09T12:30:39;2.70;;;1.85;;
13457;SDS011;6801;53.018;11.560;2023-10-09T12:33:07;5.25;;;2.05;;
13457;SDS011;6801;53.018;11.560;2023-10-09T12:35:38;2.67;;;1.80;;
13457;SDS011;6801;53.018;11.560;2023-10-09T12:38:06;4.38;;;2.00;;
13457;SDS011;6801;53.018;11.560;2023-10-09T12:40:37;4.13;;;2.53;;
13457;SDS011;6801;53.018;11.560;2023-10-09T12:43:06;2.80;;;2.05;;
13457;SDS011;6801;53.018;11.560;2023-10-09T12:45:42;2.83;;;2.13;;
13457;SDS011;6801;53.018;11.560;2023-10-09T12:48:10;3.33;;;2.13;;
13457;SDS011;6801;53.018;11.560;2023-10-09T12:50:39;4.45;;;2.20;;
13457;SDS011;6801;53.018;11.560;2023-10-09T12:53:09;4.18;;;2.35;;
13457;SDS011;6801;53.018;11.560;2023-10-09T12:55:38;3.92;;;2.40;;
13457;SDS011;6801;53.018;11.560;2023-10-09T12:58:07;3.20;;;2.25;;
13457;SDS011;6801;53.018;11.560;2023-10-09T13:00:35;3.10;;;2.20;;
13457;SDS011;6801;53.018;11.560;2023-10-09T13:03:08;4.03;;;2.33;;
13457;SDS011;6801;53.018;11.560;2023-10-09T13:05:43;4.07;;;2.75;;
13457;SDS011;6801;53.018;11.560;2023-10-09T13:08:18;4.68;;;2.72;;
13457;SDS011;6801;53.018;11.560;2023-10-09T13:10:48;5.00;;;2.75;;
13457;SDS011;6801;53.018;11.560;2023-10-09T13:13:23;3.40;;;2.70;;
13457;SDS011;6801;53.018;11.560;2023-10-09T13:16:07;3.42;;;2.65;;
13457;SDS011;6801;53.018;11.560;2023-10-09T13:18:39;4.80;;;2.28;;
13457;SDS011;6801;53.018;11.560;2023-10-09T13:21:06;5.07;;;2.70;;
13457;SDS011;6801;53.018;11.560;2023-10-09T13:23:33;5.35;;;2.83;;
13457;SDS011;6801;53.018;11.560;2023-10-09T13:26:07;5.07;;;3.35;;
13457;SDS011;6801;53.018;11.560;2023-10-09T13:28:47;3.75;;;2.65;;
13457;SDS011;6801;53.018;11.560;2023-10-09T13:31:15;4.00;;;2.53;;
13457;SDS011;6801;53.018;11.560;2023-10-09T13:33:44;4.93;;;3.00;;
13457;SDS011;6801;53.018;11.560;2023-10-09T13:36:11;3.78;;;2.85;;
13457;SDS011;6801;53.018;11.560;2023-10-09T13:38:44;6.47;;;3.17;;
13457;SDS011;6801;53.018;11.560;2023-10-09T13:41:12;4.15;;;3.00;;
13457;SDS011;6801;53.018;11.560;2023-10-09T13:43:43;4.75;;;3.08;;
13457;SDS011;6801;53.018;11.560;2023-10-09T13:46:10;5.60;;;3.00;;
13457;SDS011;6801;53.018;11.560;2023-10-09T13:48:39;3.65;;;2.67;;
13457;SDS011;6801;53.018;11.560;2023-10-09T13:51:10;4.85;;;3.38;;
13457;SDS011;6801;53.018;11.560;2023-10-09T13:53:42;4.65;;;3.08;;
13457;SDS011;6801;53.018;11.560;2023-10-09T13:58:47;4.63;;;2.70;;
13457;SDS011;6801;53.018;11.560;2023-10-09T14:01:16;4.68;;;3.28;;
13457;SDS011;6801;53.018;11.560;2023-10-09T14:03:55;4.30;;;2.92;;
13457;SDS011;6801;53.018;11.560;2023-10-09T14:06:24;5.25;;;3.10;;
13457;SDS011;6801;53.018;11.560;2023-10-09T14:08:58;6.35;;;3.25;;
13457;SDS011;6801;53.018;11.560;2023-10-09T14:11:28;6.47;;;3.40;;
13457;SDS011;6801;53.018;11.560;2023-10-09T14:13:55;5.72;;;3.65;;
13457;SDS011;6801;53.018;11.560;2023-10-09T14:16:25;6.47;;;3.47;;
13457;SDS011;6801;53.018;11.560;2023-10-09T14:18:56;4.72;;;3.17;;
13457;SDS011;6801;53.018;11.560;2023-10-09T14:21:26;6.95;;;3.28;;
13457;SDS011;6801;53.018;11.560;2023-10-09T14:26:26;5.20;;;3.55;;
13457;SDS011;6801;53.018;11.560;2023-10-09T14:28:54;4.22;;;2.50;;
13457;SDS011;6801;53.018;11.560;2023-10-09T14:31:23;4.55;;;2.80;;
13457;SDS011;6801;53.018;11.560;2023-10-09T14:33:54;3.85;;;2.65;;
13457;SDS011;6801;53.018;11.560;2023-10-09T14:36:22;3.72;;;2.53;;
13457;SDS011;6801;53.018;11.560;2023-10-09T14:39:00;3.13;;;2.60;;
13457;SDS011;6801;53.018;11.560;2023-10-09T14:41:29;3.78;;;2.53;;
13457;SDS011;6801;53.018;11.560;2023-10-09T14:43:58;3.85;;;2.63;;
13457;SDS011;6801;53.018;11.560;2023-10-09T14:46:26;4.85;;;2.70;;
13457;SDS011;6801;53.018;11.560;2023-10-09T14:48:53;3.15;;;2.28;;
13457;SDS011;6801;53.018;11.560;2023-10-09T14:51:20;2.88;;;2.03;;
13457;SDS011;6801;53.018;11.560;2023-10-09T14:53:55;3.53;;;2.33;;
13457;SDS011;6801;53.018;11.560;2023-10-09T14:56:28;3.28;;;2.10;;
13457;SDS011;6801;53.018;11.560;2023-10-09T14:58:56;3.80;;;2.70;;
13457;SDS011;6801;53.018;11.560;2023-10-09T15:01:24;2.90;;;2.22;;
13457;SDS011;6801;53.018;11.560;2023-10-09T15:03:54;4.40;;;2.40;;
13457;SDS011;6801;53.018;11.560;2023-10-09T15:06:24;3.90;;;2.70;;
13457;SDS011;6801;53.018;11.560;2023-10-09T15:11:22;4.13;;;2.63;;
13457;SDS011;6801;53.018;11.560;2023-10-09T15:13:52;3.15;;;2.25;;
13457;SDS011;6801;53.018;11.560;2023-10-09T15:16:19;4.15;;;2.42;;
13457;SDS011;6801;53.018;11.560;2023-10-09T15:18:52;5.43;;;2.63;;
13457;SDS011;6801;53.018;11.560;2023-10-09T15:21:20;5.75;;;3.05;;
13457;SDS011;6801;53.018;11.560;2023-10-09T15:23:48;4.43;;;2.28;;
13457;SDS011;6801;53.018;11.560;2023-10-09T15:26:19;4.80;;;2.90;;
13457;SDS011;6801;53.018;11.560;2023-10-09T15:28:47;5.20;;;3.22;;
13457;SDS011;6801;53.018;11.560;2023-10-09T15:31:17;5.40;;;3.35;;
13457;SDS011;6801;53.018;11.560;2023-10-09T15:33:46;6.10;;;2.65;;
13457;SDS011;6801;53.018;11.560;2023-10-09T15:36:17;8.50;;;3.53;;
13457;SDS011;6801;53.018;11.560;2023-10-09T15:38:46;6.03;;;3.17;;
13457;SDS011;6801;53.018;11.560;2023-10-09T15:41:15;4.70;;;2.97;;
13457;SDS011;6801;53.018;11.560;2023-10-09T15:43:44;3.97;;;2.78;;
13457;SDS011;6801;53.018;11.560;2023-10-09T15:46:11;3.15;;;2.30;;
13457;SDS011;6801;53.018;11.560;2023-10-09T15:48:42;2.85;;;2.10;;
13457;SDS011;6801;53.018;11.560;2023-10-09T15:53:41;5.32;;;1.92;;
13457;SDS011;6801;53.018;11.560;2023-10-09T15:56:09;2.90;;;2.00;;